Time;durP1;ratioP1;P1;durP2;ratioP2;P2;SDS_P1;SDS_P2;PMS_P1;PMS_P2;Temp;Humidity;BMP_temperature;BMP_pressure;BME280_temperature;BME280_humidity;BME280_pressure;Samples;Min_cycle;Max_cycle;Signal;HPM_P1;HPM_P2
2023/08/23 00:01:06;;;;;;;12.82;7.22;;;;;;;;;;5031371;28;20064;-67
2023/08/23 00:03:31;;;;;;;15.70;7.18;;;;;;;;;;5030797;28;20057;-67
2023/08/23 00:05:57;;;;;;;11.60;6.95;;;;;;;;;;5030305;28;20048;-67
2023/08/23 00:08:22;;;;;;;12.32;6.82;;;;;;;;;;5029124;28;20033;-67
2023/08/23 00:10:54;;;;;;;13.13;7.05;;;;;;;;;;5030040;28;20359;-67
2023/08/23 00:13:21;;;;;;;15.90;7.28;;;;;;;;;;5028901;28;20030;-67
2023/08/23 00:15:46;;;;;;;15.95;7.43;;;;;;;;;;5029299;28;20179;-68
2023/08/23 00:18:12;;;;;;;13.40;7.15;;;;;;;;;;5029843;28;20124;-67
2023/08/23 00:20:37;;;;;;;11.27;6.28;;;;;;;;;;5031023;28;20472;-67
2023/08/23 00:23:03;;;;;;;13.38;6.80;;;;;;;;;;5031294;28;20500;-66
2023/08/23 00:25:29;;;;;;;17.10;7.05;;;;;;;;;;5014975;28;20029;-67
2023/08/23 00:27:55;;;;;;;10.80;6.35;;;;;;;;;;5015484;28;20542;-68
2023/08/23 00:30:21;;;;;;;9.10;6.40;;;;;;;;;;5032169;28;20124;-67
2023/08/23 00:32:46;;;;;;;13.40;6.43;;;;;;;;;;5015259;28;20033;-68
2023/08/23 00:35:12;;;;;;;14.23;6.63;;;;;;;;;;5014744;28;20037;-68
2023/08/23 00:37:38;;;;;;;14.55;7.00;;;;;;;;;;5030918;28;20064;-67
2023/08/23 00:40:05;;;;;;;10.70;5.90;;;;;;;;;;5014587;28;20460;-68
2023/08/23 00:42:31;;;;;;;13.75;7.53;;;;;;;;;;5030856;28;20084;-67
2023/08/23 00:44:56;;;;;;;12.75;7.05;;;;;;;;;;4998250;28;20037;-68
2023/08/23 00:47:22;;;;;;;13.63;6.70;;;;;;;;;;5030856;28;20045;-67
2023/08/23 00:49:47;;;;;;;10.32;6.82;;;;;;;;;;5031145;28;20029;-68
2023/08/23 00:52:14;;;;;;;13.32;6.72;;;;;;;;;;5030745;28;20029;-67
2023/08/23 00:54:40;;;;;;;12.63;6.78;;;;;;;;;;5030805;28;20471;-67
2023/08/23 00:57:06;;;;;;;11.77;6.88;;;;;;;;;;5030685;28;20072;-68
2023/08/23 00:59:32;;;;;;;14.75;7.63;;;;;;;;;;5014280;28;20049;-67
2023/08/23 01:01:58;;;;;;;13.10;7.10;;;;;;;;;;5030221;28;20041;-67
2023/08/23 01:04:23;;;;;;;16.75;7.18;;;;;;;;;;5031541;28;20044;-67
2023/08/23 01:06:49;;;;;;;16.45;7.60;;;;;;;;;;5031713;28;20041;-68
2023/08/23 01:09:22;;;;;;;15.55;6.95;;;;;;;;;;5030593;28;20488;-68
2023/08/23 01:11:57;;;;;;;14.35;7.93;;;;;;;;;;5030714;28;20387;-67
2023/08/23 01:14:23;;;;;;;16.38;8.07;;;;;;;;;;4999799;28;20132;-67
2023/08/23 01:16:49;;;;;;;14.25;7.47;;;;;;;;;;5034445;28;20068;-67
2023/08/23 01:19:21;;;;;;;13.93;8.10;;;;;;;;;;5034142;28;20056;-67
2023/08/23 01:21:47;;;;;;;18.10;8.10;;;;;;;;;;5035350;28;20120;-67
2023/08/23 01:24:14;;;;;;;13.35;8.18;;;;;;;;;;5033942;28;20056;-67
2023/08/23 01:26:40;;;;;;;14.10;8.15;;;;;;;;;;5033886;28;20038;-68
2023/08/23 01:29:07;;;;;;;13.73;8.07;;;;;;;;;;5033938;28;20079;-68
2023/08/23 01:31:36;;;;;;;12.80;8.25;;;;;;;;;;5017428;28;20444;-68
2023/08/23 01:34:09;;;;;;;15.02;8.73;;;;;;;;;;5034104;28;20060;-68
2023/08/23 01:36:36;;;;;;;14.13;8.05;;;;;;;;;;5001223;28;20033;-68
2023/08/23 01:39:03;;;;;;;13.45;6.97;;;;;;;;;;5033801;28;20057;-67
2023/08/23 01:41:29;;;;;;;12.88;7.32;;;;;;;;;;5001087;28;20033;-68
2023/08/23 01:43:55;;;;;;;11.15;6.68;;;;;;;;;;5033702;28;20372;-67
2023/08/23 01:46:21;;;;;;;10.93;6.88;;;;;;;;;;5037459;28;20053;-69
2023/08/23 01:48:47;;;;;;;12.82;6.63;;;;;;;;;;5036056;28;20057;-67
2023/08/23 01:51:12;;;;;;;10.00;6.28;;;;;;;;;;5017026;28;20116;-67
2023/08/23 01:53:39;;;;;;;11.10;6.90;;;;;;;;;;5033634;28;20076;-67
2023/08/23 01:56:05;;;;;;;14.25;6.78;;;;;;;;;;5034539;28;20419;-68
2023/08/23 01:58:31;;;;;;;12.35;6.55;;;;;;;;;;5033413;28;20136;-67
2023/08/23 02:00:58;;;;;;;13.55;6.53;;;;;;;;;;5016855;28;20387;-68
2023/08/23 02:03:24;;;;;;;12.45;6.68;;;;;;;;;;5033858;28;20136;-67
2023/08/23 02:05:49;;;;;;;8.93;6.05;;;;;;;;;;5034813;28;20064;-67
2023/08/23 02:08:17;;;;;;;13.70;6.55;;;;;;;;;;5035571;28;20069;-68
2023/08/23 02:10:42;;;;;;;13.93;6.22;;;;;;;;;;5034444;28;20036;-67
2023/08/23 02:13:08;;;;;;;12.70;6.55;;;;;;;;;;5033226;28;20037;-67
2023/08/23 02:15:35;;;;;;;12.15;7.03;;;;;;;;;;5033073;28;20049;-68
2023/08/23 02:18:21;;;;;;;11.30;6.38;;;;;;;;;;5033665;28;20063;-68
2023/08/23 02:20:59;;;;;;;13.57;6.68;;;;;;;;;;5016688;28;20041;-67
2023/08/23 02:23:25;;;;;;;12.50;7.43;;;;;;;;;;5033920;28;20041;-68
2023/08/23 02:25:52;;;;;;;12.32;7.05;;;;;;;;;;5033769;28;20463;-67
2023/08/23 02:28:19;;;;;;;10.68;6.90;;;;;;;;;;5000734;28;20102;-67
2023/08/23 02:30:45;;;;;;;13.43;6.88;;;;;;;;;;5033120;28;20030;-68
2023/08/23 02:33:11;;;;;;;12.68;6.68;;;;;;;;;;5032985;28;20539;-67
2023/08/23 02:35:41;;;;;;;11.65;6.72;;;;;;;;;;5032941;28;20116;-67
2023/08/23 02:38:08;;;;;;;12.38;7.30;;;;;;;;;;5033720;28;20099;-67
2023/08/23 02:40:34;;;;;;;12.68;7.38;;;;;;;;;;5016213;28;20471;-67
2023/08/23 02:43:00;;;;;;;11.60;7.22;;;;;;;;;;5032488;28;20110;-67
2023/08/23 02:45:26;;;;;;;11.38;7.85;;;;;;;;;;5032765;28;20041;-68
2023/08/23 02:47:51;;;;;;;11.88;7.18;;;;;;;;;;5034448;28;20046;-69
2023/08/23 02:50:17;;;;;;;10.60;7.28;;;;;;;;;;5034229;28;20123;-68
2023/08/23 02:52:43;;;;;;;14.80;7.45;;;;;;;;;;5035020;28;20098;-68
2023/08/23 02:55:08;;;;;;;13.30;7.70;;;;;;;;;;5032496;28;20549;-68
2023/08/23 02:57:34;;;;;;;14.23;7.90;;;;;;;;;;5032260;28;20456;-67
2023/08/23 03:00:00;;;;;;;14.82;8.00;;;;;;;;;;5032266;28;20026;-67
2023/08/23 03:02:25;;;;;;;11.82;7.50;;;;;;;;;;5032125;28;20041;-70
2023/08/23 03:04:51;;;;;;;12.10;7.53;;;;;;;;;;5032944;28;20132;-68
2023/08/23 03:07:17;;;;;;;14.00;7.47;;;;;;;;;;5015397;28;20231;-68
2023/08/23 03:09:42;;;;;;;13.80;7.28;;;;;;;;;;5031753;28;20029;-68
2023/08/23 03:12:08;;;;;;;13.48;6.80;;;;;;;;;;5031735;28;20037;-68
2023/08/23 03:14:34;;;;;;;12.50;6.72;;;;;;;;;;5015543;28;20033;-68
2023/08/23 03:17:00;;;;;;;12.95;7.10;;;;;;;;;;5015470;28;20075;-67
2023/08/23 03:19:25;;;;;;;12.25;6.75;;;;;;;;;;5031586;28;20702;-67
2023/08/23 03:21:51;;;;;;;12.57;6.72;;;;;;;;;;5032686;28;20084;-68
2023/08/23 03:24:16;;;;;;;8.73;6.97;;;;;;;;;;4998878;28;20069;-67
2023/08/23 03:26:42;;;;;;;10.88;6.22;;;;;;;;;;5031395;28;20041;-66
2023/08/23 03:29:09;;;;;;;9.13;6.68;;;;;;;;;;5031314;28;20029;-67
2023/08/23 03:31:34;;;;;;;8.35;6.35;;;;;;;;;;4998732;28;20590;-67
2023/08/23 03:34:02;;;;;;;11.93;6.55;;;;;;;;;;5031422;28;20380;-67
2023/08/23 03:36:30;;;;;;;10.52;6.38;;;;;;;;;;5034381;28;20108;-66
2023/08/23 03:38:57;;;;;;;13.35;5.93;;;;;;;;;;5040582;28;20037;-66
2023/08/23 03:41:22;;;;;;;10.48;6.15;;;;;;;;;;5027906;28;20024;-66
2023/08/23 03:43:48;;;;;;;9.65;5.68;;;;;;;;;;5040023;28;20932;-66
2023/08/23 03:46:13;;;;;;;8.55;5.07;;;;;;;;;;5025998;28;20132;-66
2023/08/23 03:48:40;;;;;;;6.45;4.80;;;;;;;;;;5039562;28;20045;-67
2023/08/23 03:51:05;;;;;;;8.77;5.07;;;;;;;;;;5043093;28;20124;-68
2023/08/23 03:53:31;;;;;;;9.70;5.53;;;;;;;;;;5026205;28;20383;-66
2023/08/23 03:55:58;;;;;;;12.00;5.47;;;;;;;;;;5042861;28;20051;-67
2023/08/23 03:58:24;;;;;;;7.72;5.50;;;;;;;;;;5010074;28;20472;-67
2023/08/23 04:00:53;;;;;;;9.65;4.82;;;;;;;;;;5040971;28;20479;-67
2023/08/23 04:03:20;;;;;;;14.52;5.82;;;;;;;;;;5029815;28;20034;-68
2023/08/23 04:05:45;;;;;;;14.57;7.30;;;;;;;;;;5030130;28;20048;-67
2023/08/23 04:08:11;;;;;;;19.00;6.35;;;;;;;;;;5031945;28;20050;-68
2023/08/23 04:10:45;;;;;;;28.92;8.43;;;;;;;;;;5031072;28;20206;-68
2023/08/23 04:13:10;;;;;;;14.77;6.43;;;;;;;;;;5014033;28;20041;-68
2023/08/23 04:15:36;;;;;;;13.23;5.80;;;;;;;;;;5030985;28;20047;-68
2023/08/23 04:18:02;;;;;;;17.55;6.47;;;;;;;;;;5032006;28;20115;-67
2023/08/23 04:20:27;;;;;;;15.07;5.70;;;;;;;;;;5015468;28;20030;-67
2023/08/23 04:22:54;;;;;;;16.90;6.50;;;;;;;;;;5015623;28;20140;-67
2023/08/23 04:25:20;;;;;;;14.43;6.63;;;;;;;;;;5014758;28;20145;-68
2023/08/23 04:27:46;;;;;;;8.60;5.32;;;;;;;;;;5031046;28;20471;-67
2023/08/23 04:30:12;;;;;;;10.80;5.78;;;;;;;;;;5031098;28;20037;-68
2023/08/23 04:32:39;;;;;;;12.27;5.90;;;;;;;;;;5014838;28;20048;-69
2023/08/23 04:35:05;;;;;;;9.30;5.60;;;;;;;;;;5031835;28;20037;-68
2023/08/23 04:37:31;;;;;;;8.25;5.68;;;;;;;;;;5014463;28;20111;-67
2023/08/23 04:39:57;;;;;;;12.82;6.18;;;;;;;;;;5031168;28;20042;-67
2023/08/23 04:42:23;;;;;;;11.52;7.30;;;;;;;;;;5013908;28;20118;-67
2023/08/23 04:44:49;;;;;;;7.32;5.60;;;;;;;;;;5014144;28;20039;-67
2023/08/23 04:47:16;;;;;;;7.55;5.93;;;;;;;;;;5014511;28;20037;-67
2023/08/23 04:49:44;;;;;;;9.82;5.68;;;;;;;;;;5018331;28;20029;-67
2023/08/23 04:52:10;;;;;;;8.68;5.22;;;;;;;;;;5018098;28;20037;-68
2023/08/23 04:54:36;;;;;;;8.32;5.28;;;;;;;;;;5018067;28;20349;-67
2023/08/23 04:57:04;;;;;;;8.55;5.55;;;;;;;;;;5018387;28;20041;-70
2023/08/23 04:59:30;;;;;;;10.15;5.75;;;;;;;;;;5036199;28;20057;-68
2023/08/23 05:01:57;;;;;;;10.77;5.75;;;;;;;;;;5036668;28;20046;-67
2023/08/23 05:04:23;;;;;;;8.20;5.57;;;;;;;;;;5035795;28;20048;-67
2023/08/23 05:06:49;;;;;;;10.70;5.47;;;;;;;;;;5018270;28;20045;-68
2023/08/23 05:09:15;;;;;;;11.65;6.10;;;;;;;;;;5034265;28;20124;-68
2023/08/23 05:11:41;;;;;;;8.32;5.18;;;;;;;;;;5017602;28;20448;-67
2023/08/23 05:14:07;;;;;;;10.52;5.80;;;;;;;;;;5034386;28;20045;-68
2023/08/23 05:16:33;;;;;;;8.48;5.22;;;;;;;;;;5001416;28;20040;-67
2023/08/23 05:18:59;;;;;;;9.80;6.03;;;;;;;;;;5034080;28;20140;-67
2023/08/23 05:21:25;;;;;;;13.23;6.55;;;;;;;;;;5033909;28;20083;-67
2023/08/23 05:23:50;;;;;;;12.43;6.07;;;;;;;;;;5001242;28;20041;-67
2023/08/23 05:26:18;;;;;;;7.70;5.80;;;;;;;;;;5033727;28;20140;-68
2023/08/23 05:28:44;;;;;;;8.65;5.97;;;;;;;;;;5034051;28;20069;-67
2023/08/23 05:31:10;;;;;;;11.50;6.00;;;;;;;;;;5017407;28;20034;-68
2023/08/23 05:33:35;;;;;;;10.73;6.05;;;;;;;;;;5017513;28;20041;-68
2023/08/23 05:36:03;;;;;;;17.25;6.25;;;;;;;;;;5017489;28;20025;-67
2023/08/23 05:38:29;;;;;;;19.65;7.25;;;;;;;;;;5016918;28;20087;-68
2023/08/23 05:40:57;;;;;;;25.25;7.18;;;;;;;;;;5033458;28;20049;-68
2023/08/23 05:43:23;;;;;;;16.83;5.85;;;;;;;;;;5033543;28;20061;-68
2023/08/23 05:45:54;;;;;;;13.98;5.40;;;;;;;;;;5016917;28;20029;-68
2023/08/23 05:48:20;;;;;;;6.50;5.38;;;;;;;;;;5033711;28;20042;-68
2023/08/23 05:50:47;;;;;;;8.77;5.00;;;;;;;;;;5016991;28;20120;-67
2023/08/23 05:53:18;;;;;;;9.07;4.45;;;;;;;;;;5016824;28;20053;-68
2023/08/23 05:55:50;;;;;;;6.57;4.53;;;;;;;;;;5036035;28;20056;-67
2023/08/23 05:58:20;;;;;;;8.10;4.18;;;;;;;;;;5036214;28;20048;-67
2023/08/23 06:00:46;;;;;;;9.45;4.47;;;;;;;;;;5020053;28;20064;-68
2023/08/23 06:03:15;;;;;;;5.25;4.05;;;;;;;;;;5003945;28;20118;-67
2023/08/23 06:05:43;;;;;;;5.97;3.40;;;;;;;;;;5019269;28;20056;-67
2023/08/23 06:08:09;;;;;;;5.47;3.70;;;;;;;;;;5002576;28;20029;-68
2023/08/23 06:10:35;;;;;;;9.00;3.72;;;;;;;;;;5052613;28;20432;-69
2023/08/23 06:13:01;;;;;;;3.58;3.28;;;;;;;;;;5035682;28;20036;-67
2023/08/23 06:15:27;;;;;;;6.85;3.42;;;;;;;;;;5052208;28;20151;-67
2023/08/23 06:17:54;;;;;;;5.32;3.35;;;;;;;;;;5035404;28;20124;-67
2023/08/23 06:20:20;;;;;;;5.28;3.15;;;;;;;;;;5018948;28;20025;-68
2023/08/23 06:22:45;;;;;;;8.60;3.60;;;;;;;;;;5052181;28;20152;-68
2023/08/23 06:25:11;;;;;;;4.00;3.30;;;;;;;;;;5002473;28;20148;-67
2023/08/23 06:27:38;;;;;;;4.95;2.97;;;;;;;;;;5016643;28;20033;-68
2023/08/23 06:30:10;;;;;;;5.68;3.13;;;;;;;;;;5034203;28;20037;-67
2023/08/23 06:32:35;;;;;;;4.13;3.30;;;;;;;;;;5016869;28;20033;-67
2023/08/23 06:35:02;;;;;;;7.22;3.45;;;;;;;;;;5016174;28;20091;-70
2023/08/23 06:37:31;;;;;;;5.32;3.60;;;;;;;;;;5016531;28;20595;-67
2023/08/23 06:39:56;;;;;;;6.10;3.20;;;;;;;;;;5015839;28;20148;-67
2023/08/23 06:42:22;;;;;;;5.05;3.60;;;;;;;;;;5015831;28;20057;-67
2023/08/23 06:44:48;;;;;;;4.43;3.53;;;;;;;;;;5032828;28;20479;-68
2023/08/23 06:47:14;;;;;;;5.55;3.60;;;;;;;;;;5016011;28;20116;-67
2023/08/23 06:49:39;;;;;;;6.50;3.65;;;;;;;;;;5016103;28;20432;-68
2023/08/23 06:52:05;;;;;;;6.22;3.63;;;;;;;;;;5000064;28;20041;-68
2023/08/23 06:54:31;;;;;;;5.55;3.92;;;;;;;;;;5035278;28;20086;-68
2023/08/23 06:56:56;;;;;;;7.90;3.92;;;;;;;;;;5035435;28;20047;-67
2023/08/23 06:59:23;;;;;;;6.03;3.60;;;;;;;;;;5001621;28;20490;-67
2023/08/23 07:01:49;;;;;;;6.90;3.17;;;;;;;;;;5018353;28;20175;-67
2023/08/23 07:04:15;;;;;;;4.50;3.00;;;;;;;;;;5050782;28;20044;-68
2023/08/23 07:06:40;;;;;;;3.67;2.95;;;;;;;;;;5067574;28;20460;-68
2023/08/23 07:09:06;;;;;;;3.00;2.70;;;;;;;;;;5035097;28;20419;-69
2023/08/23 07:11:32;;;;;;;2.97;2.67;;;;;;;;;;5033836;28;20075;-67
2023/08/23 07:13:58;;;;;;;3.40;2.67;;;;;;;;;;5034266;28;20049;-67
2023/08/23 07:16:24;;;;;;;3.30;2.72;;;;;;;;;;5017958;28;20035;-67
2023/08/23 07:18:50;;;;;;;3.33;2.53;;;;;;;;;;5050793;28;20044;-67
2023/08/23 07:21:16;;;;;;;2.63;2.42;;;;;;;;;;5017631;28;20102;-68
2023/08/23 07:23:42;;;;;;;4.68;2.58;;;;;;;;;;5017760;28;20049;-68
2023/08/23 07:26:09;;;;;;;3.35;2.75;;;;;;;;;;5015407;28;20060;-67
2023/08/23 07:28:36;;;;;;;2.58;2.38;;;;;;;;;;4999526;28;20041;-68
2023/08/23 07:31:03;;;;;;;4.00;2.55;;;;;;;;;;5015057;28;20076;-68
2023/08/23 07:33:29;;;;;;;3.08;2.47;;;;;;;;;;4998634;28;20053;-68
2023/08/23 07:35:56;;;;;;;4.68;2.50;;;;;;;;;;4982091;28;20100;-68
2023/08/23 07:38:22;;;;;;;8.65;2.70;;;;;;;;;;4998082;28;20483;-70
2023/08/23 07:40:52;;;;;;;2.45;2.22;;;;;;;;;;4981959;28;20060;-67
2023/08/23 07:43:18;;;;;;;5.30;2.60;;;;;;;;;;4999016;28;20395;-68
2023/08/23 07:45:44;;;;;;;4.15;2.60;;;;;;;;;;5015521;28;20556;-67
2023/08/23 07:48:11;;;;;;;3.13;2.60;;;;;;;;;;5015454;28;20100;-68
2023/08/23 07:50:36;;;;;;;2.53;2.33;;;;;;;;;;4981320;28;20056;-68
2023/08/23 07:53:02;;;;;;;2.88;2.60;;;;;;;;;;5050009;28;20112;-68
2023/08/23 07:55:28;;;;;;;3.42;2.60;;;;;;;;;;5050076;28;20044;-67
2023/08/23 07:57:53;;;;;;;3.42;2.90;;;;;;;;;;5016946;28;20135;-68
2023/08/23 08:00:20;;;;;;;7.68;2.85;;;;;;;;;;5016964;28;20072;-67
2023/08/23 08:02:46;;;;;;;3.75;2.40;;;;;;;;;;5000629;28;20075;-68
2023/08/23 08:05:11;;;;;;;3.20;2.47;;;;;;;;;;5000783;28;20447;-68
2023/08/23 08:07:37;;;;;;;3.33;3.03;;;;;;;;;;5000582;28;20467;-68
2023/08/23 08:10:03;;;;;;;2.78;2.00;;;;;;;;;;5033239;28;20136;-68
2023/08/23 08:12:31;;;;;;;2.05;1.83;;;;;;;;;;5016969;28;20494;-68
2023/08/23 08:14:59;;;;;;;2.92;2.00;;;;;;;;;;5000549;28;20037;-67
2023/08/23 08:17:26;;;;;;;4.78;2.10;;;;;;;;;;5016548;28;20049;-68
2023/08/23 08:19:52;;;;;;;2.17;1.77;;;;;;;;;;5033272;28;20060;-68
2023/08/23 08:22:17;;;;;;;3.25;2.00;;;;;;;;;;5002202;28;20044;-67
2023/08/23 08:24:43;;;;;;;2.22;1.80;;;;;;;;;;5023647;28;20495;-68
2023/08/23 08:27:08;;;;;;;3.03;2.05;;;;;;;;;;5040287;28;20044;-68
2023/08/23 08:29:35;;;;;;;4.40;1.65;;;;;;;;;;5037356;28;20041;-70
2023/08/23 08:32:01;;;;;;;1.92;1.70;;;;;;;;;;5037450;28;20093;-69
2023/08/23 08:34:27;;;;;;;3.17;1.75;;;;;;;;;;5020870;28;20064;-68
2023/08/23 08:36:53;;;;;;;4.50;1.70;;;;;;;;;;5020674;28;20463;-68
2023/08/23 08:39:19;;;;;;;5.30;1.77;;;;;;;;;;5021117;28;20041;-67
2023/08/23 08:41:45;;;;;;;2.22;1.88;;;;;;;;;;5021294;28;20072;-68
2023/08/23 08:44:12;;;;;;;1.80;1.70;;;;;;;;;;5037484;28;20064;-67
2023/08/23 08:46:40;;;;;;;2.33;1.77;;;;;;;;;;5020796;28;20479;-68
2023/08/23 08:49:06;;;;;;;2.17;1.70;;;;;;;;;;5021096;28;20055;-68
2023/08/23 08:51:33;;;;;;;2.25;1.48;;;;;;;;;;5037289;28;20051;-68
2023/08/23 08:53:59;;;;;;;1.90;1.40;;;;;;;;;;5037281;28;20033;-68
2023/08/23 08:56:26;;;;;;;4.65;1.90;;;;;;;;;;5020892;28;20037;-67
2023/08/23 08:58:52;;;;;;;2.30;1.50;;;;;;;;;;5020719;28;20369;-68
2023/08/23 09:01:18;;;;;;;2.33;1.75;;;;;;;;;;5037022;28;20041;-68
2023/08/23 09:03:44;;;;;;;3.05;1.90;;;;;;;;;;5037833;28;20041;-67
2023/08/23 09:06:10;;;;;;;2.63;2.30;;;;;;;;;;5038039;28;20045;-68
2023/08/23 09:08:35;;;;;;;2.97;2.05;;;;;;;;;;5037608;28;20037;-68
2023/08/23 09:11:02;;;;;;;5.40;1.95;;;;;;;;;;5054286;28;20053;-69
2023/08/23 09:13:28;;;;;;;4.78;2.17;;;;;;;;;;5020681;28;20203;-69
2023/08/23 09:15:56;;;;;;;3.72;2.10;;;;;;;;;;5037434;28;20049;-68
2023/08/23 09:18:22;;;;;;;4.97;2.50;;;;;;;;;;5022044;28;20103;-68
2023/08/23 09:20:47;;;;;;;3.45;2.22;;;;;;;;;;5004485;28;20045;-71
2023/08/23 09:23:13;;;;;;;3.90;2.40;;;;;;;;;;5022184;28;20103;-68
2023/08/23 09:25:39;;;;;;;4.95;2.20;;;;;;;;;;5004942;28;20123;-68
2023/08/23 09:28:10;;;;;;;3.63;2.20;;;;;;;;;;5037708;28;20037;-67
2023/08/23 09:30:36;;;;;;;2.97;2.15;;;;;;;;;;5037965;28;20488;-69
2023/08/23 09:33:02;;;;;;;2.10;1.88;;;;;;;;;;5021031;28;20186;-68
2023/08/23 09:35:29;;;;;;;3.97;2.10;;;;;;;;;;5017171;28;20080;-68
2023/08/23 09:37:55;;;;;;;2.95;2.00;;;;;;;;;;5017475;28;20096;-68
2023/08/23 09:40:25;;;;;;;2.45;2.15;;;;;;;;;;5017415;28;20040;-68
2023/08/23 09:42:51;;;;;;;3.13;2.17;;;;;;;;;;5017524;28;20058;-68
2023/08/23 09:45:22;;;;;;;2.78;2.00;;;;;;;;;;5034573;28;20033;-68
2023/08/23 09:47:55;;;;;;;4.97;2.20;;;;;;;;;;5017490;28;20037;-68
2023/08/23 09:50:23;;;;;;;2.72;2.20;;;;;;;;;;5016746;28;20053;-68
2023/08/23 09:52:50;;;;;;;4.93;2.30;;;;;;;;;;5017324;28;20034;-68
2023/08/23 09:55:16;;;;;;;5.93;2.20;;;;;;;;;;5033381;28;20044;-68
2023/08/23 09:57:42;;;;;;;2.42;1.90;;;;;;;;;;5033409;28;20516;-68
2023/08/23 10:00:09;;;;;;;3.35;2.22;;;;;;;;;;5016586;28;20431;-68
2023/08/23 10:02:35;;;;;;;2.35;1.80;;;;;;;;;;5016659;28;20050;-69
2023/08/23 10:05:04;;;;;;;3.53;2.03;;;;;;;;;;5033510;28;20068;-68
2023/08/23 10:07:32;;;;;;;2.40;2.00;;;;;;;;;;5001130;28;20059;-68
2023/08/23 10:09:59;;;;;;;2.45;2.03;;;;;;;;;;5033286;28;20072;-68
2023/08/23 10:12:25;;;;;;;2.30;2.10;;;;;;;;;;5000509;28;20045;-68
2023/08/23 10:14:51;;;;;;;3.47;2.40;;;;;;;;;;5016580;28;20029;-69
2023/08/23 10:17:20;;;;;;;3.15;1.90;;;;;;;;;;5033973;28;20561;-68
2023/08/23 10:19:49;;;;;;;5.45;2.20;;;;;;;;;;5032927;28;20056;-68
2023/08/23 10:22:19;;;;;;;3.70;2.65;;;;;;;;;;5033026;28;20393;-68
2023/08/23 10:24:47;;;;;;;;;;;;;;;;;;5034809;28;20445;-68
2023/08/23 10:27:13;;;;;;;4.47;2.60;;;;;;;;;;5016861;28;19964;-67
2023/08/23 10:29:39;;;;;;;6.13;3.08;;;;;;;;;;5018613;28;20175;-68
2023/08/23 10:32:08;;;;;;;6.28;3.20;;;;;;;;;;5034851;28;20029;-68
2023/08/23 10:34:35;;;;;;;6.18;2.90;;;;;;;;;;5016290;28;20483;-67
2023/08/23 10:37:01;;;;;;;7.07;2.97;;;;;;;;;;5016212;28;20037;-67
2023/08/23 10:39:27;;;;;;;5.65;2.83;;;;;;;;;;5017000;28;20049;-67
2023/08/23 10:41:56;;;;;;;5.32;2.90;;;;;;;;;;5016806;28;20488;-67
2023/08/23 10:44:22;;;;;;;12.95;3.60;;;;;;;;;;5017105;28;20091;-70
2023/08/23 10:46:51;;;;;;;6.78;2.92;;;;;;;;;;5016641;28;20056;-67
2023/08/23 10:49:20;;;;;;;4.43;2.80;;;;;;;;;;5033724;28;20118;-67
2023/08/23 10:51:46;;;;;;;5.82;3.08;;;;;;;;;;5016218;28;20036;-67
2023/08/23 10:54:15;;;;;;;4.75;2.63;;;;;;;;;;4999854;28;20041;-67
2023/08/23 10:56:42;;;;;;;4.70;2.88;;;;;;;;;;5015916;28;20547;-67
2023/08/23 10:59:08;;;;;;;4.20;2.25;;;;;;;;;;5016170;28;20049;-67
2023/08/23 11:01:34;;;;;;;4.85;2.38;;;;;;;;;;5016122;28;20183;-67
2023/08/23 11:04:01;;;;;;;4.57;1.80;;;;;;;;;;5032458;28;20045;-67
2023/08/23 11:06:27;;;;;;;4.28;1.85;;;;;;;;;;4999521;28;20124;-67
2023/08/23 11:08:55;;;;;;;4.70;2.30;;;;;;;;;;5015810;28;20033;-70
2023/08/23 11:11:20;;;;;;;2.85;1.90;;;;;;;;;;5015874;28;20124;-68
2023/08/23 11:13:46;;;;;;;3.28;1.98;;;;;;;;;;5015582;28;20128;-67
2023/08/23 11:16:13;;;;;;;3.55;2.20;;;;;;;;;;5032293;28;20045;-67
2023/08/23 11:18:39;;;;;;;4.30;2.05;;;;;;;;;;5032036;28;20567;-68
2023/08/23 11:21:05;;;;;;;5.43;2.20;;;;;;;;;;5015696;28;20041;-67
2023/08/23 11:23:31;;;;;;;4.40;2.40;;;;;;;;;;5016012;28;20108;-69
2023/08/23 11:25:56;;;;;;;5.82;3.28;;;;;;;;;;5032139;28;20069;-67
2023/08/23 11:28:22;;;;;;;7.88;3.40;;;;;;;;;;4995352;28;20080;-67
2023/08/23 11:30:49;;;;;;;11.65;2.90;;;;;;;;;;4994905;28;20042;-67
2023/08/23 11:33:15;;;;;;;7.18;2.85;;;;;;;;;;4994596;28;20042;-67
2023/08/23 11:35:42;;;;;;;4.60;2.58;;;;;;;;;;4962553;28;20048;-67
2023/08/23 11:38:07;;;;;;;10.40;2.42;;;;;;;;;;4994497;28;20487;-68
2023/08/23 11:40:34;;;;;;;6.57;2.70;;;;;;;;;;4978222;28;20030;-67
2023/08/23 11:43:04;;;;;;;7.78;3.50;;;;;;;;;;4977873;28;20421;-67
2023/08/23 11:45:37;;;;;;;8.77;2.40;;;;;;;;;;4994354;28;20049;-67
2023/08/23 11:48:03;;;;;;;7.75;2.83;;;;;;;;;;4994449;28;20141;-67
2023/08/23 11:50:28;;;;;;;4.95;2.83;;;;;;;;;;4994239;28;20462;-67
2023/08/23 11:52:56;;;;;;;4.68;2.55;;;;;;;;;;4978165;28;20045;-68
2023/08/23 11:55:22;;;;;;;4.40;1.92;;;;;;;;;;4994372;28;20025;-67
2023/08/23 11:57:54;;;;;;;4.10;2.20;;;;;;;;;;4993543;28;20037;-67
2023/08/23 12:00:22;;;;;;;3.85;2.50;;;;;;;;;;5028035;28;20053;-67
2023/08/23 12:02:52;;;;;;;4.63;2.72;;;;;;;;;;5031119;28;20120;-68
2023/08/23 12:05:22;;;;;;;6.30;2.90;;;;;;;;;;5050311;28;20032;-67
2023/08/23 12:07:53;;;;;;;7.45;2.78;;;;;;;;;;5017315;28;20060;-67
2023/08/23 12:10:18;;;;;;;6.82;3.00;;;;;;;;;;5017192;28;20078;-69
2023/08/23 12:12:46;;;;;;;8.02;3.53;;;;;;;;;;5017348;28;20040;-67
2023/08/23 12:15:12;;;;;;;6.70;3.17;;;;;;;;;;5046571;28;20184;-68
2023/08/23 12:17:39;;;;;;;4.75;3.10;;;;;;;;;;5013833;28;20049;-67
2023/08/23 12:20:11;;;;;;;8.48;3.40;;;;;;;;;;4997361;28;20065;-67
2023/08/23 12:22:37;;;;;;;10.98;3.80;;;;;;;;;;5013900;28;20535;-68
2023/08/23 12:25:04;;;;;;;6.25;3.28;;;;;;;;;;5013631;28;20076;-68
2023/08/23 12:27:29;;;;;;;7.47;3.88;;;;;;;;;;4997285;28;20122;-67
2023/08/23 12:29:56;;;;;;;7.90;3.67;;;;;;;;;;5013745;28;20037;-67
2023/08/23 12:32:22;;;;;;;7.10;3.50;;;;;;;;;;4997241;28;20039;-67
2023/08/23 12:34:47;;;;;;;7.20;3.30;;;;;;;;;;5013624;28;20037;-67
2023/08/23 12:37:13;;;;;;;5.97;2.80;;;;;;;;;;4982938;28;20499;-67
2023/08/23 12:39:39;;;;;;;6.40;3.17;;;;;;;;;;4981048;28;20490;-67
2023/08/23 12:42:05;;;;;;;6.30;2.70;;;;;;;;;;4980723;28;20530;-68
2023/08/23 12:44:33;;;;;;;9.68;3.08;;;;;;;;;;4997171;28;20057;-68
2023/08/23 12:46:58;;;;;;;9.70;3.40;;;;;;;;;;5027910;28;20041;-67
2023/08/23 12:49:25;;;;;;;9.73;3.10;;;;;;;;;;5010352;28;20132;-67
2023/08/23 12:51:51;;;;;;;5.75;3.05;;;;;;;;;;4977569;28;20081;-67
2023/08/23 12:54:18;;;;;;;5.90;3.22;;;;;;;;;;4977818;28;20078;-67
2023/08/23 12:56:44;;;;;;;6.70;3.10;;;;;;;;;;4978010;28;20034;-67
2023/08/23 12:59:10;;;;;;;9.68;3.17;;;;;;;;;;4977927;28;20060;-67
2023/08/23 13:01:36;;;;;;;6.25;3.30;;;;;;;;;;4978493;28;20372;-68
2023/08/23 13:04:02;;;;;;;8.05;3.45;;;;;;;;;;4978103;28;20053;-67
2023/08/23 13:06:28;;;;;;;7.50;3.65;;;;;;;;;;4994147;28;20026;-67
2023/08/23 13:08:53;;;;;;;8.98;4.30;;;;;;;;;;4993824;28;20483;-67
2023/08/23 13:11:19;;;;;;;36.28;23.55;;;;;;;;;;4982149;28;20038;-67
2023/08/23 13:13:51;;;;;;;15.63;9.02;;;;;;;;;;4998885;28;20076;-67
2023/08/23 13:16:18;;;;;;;11.65;6.70;;;;;;;;;;4981954;28;20099;-67
2023/08/23 13:18:45;;;;;;;15.10;8.07;;;;;;;;;;4997476;28;20615;-67
2023/08/23 13:21:11;;;;;;;10.45;4.38;;;;;;;;;;5011892;28;20098;-67
2023/08/23 13:23:37;;;;;;;9.25;4.10;;;;;;;;;;5017986;28;20384;-67
2023/08/23 13:26:03;;;;;;;9.02;4.88;;;;;;;;;;5018082;28;20040;-68
2023/08/23 13:28:29;;;;;;;8.23;4.55;;;;;;;;;;5018002;28;20041;-68
2023/08/23 13:30:57;;;;;;;11.68;4.03;;;;;;;;;;5033887;28;20037;-67
2023/08/23 13:33:23;;;;;;;8.00;3.92;;;;;;;;;;5018114;28;20506;-68
2023/08/23 13:35:49;;;;;;;11.02;4.07;;;;;;;;;;5017277;28;20052;-68
2023/08/23 13:38:15;;;;;;;12.48;3.83;;;;;;;;;;5017733;28;20471;-68
2023/08/23 13:40:41;;;;;;;8.38;3.40;;;;;;;;;;5033817;28;20060;-67
2023/08/23 13:43:06;;;;;;;8.75;3.60;;;;;;;;;;5001315;28;20515;-69
2023/08/23 13:45:33;;;;;;;8.15;3.83;;;;;;;;;;5017705;28;20030;-72
2023/08/23 13:47:58;;;;;;;6.60;2.60;;;;;;;;;;5018238;28;20037;-67
2023/08/23 13:50:26;;;;;;;5.63;2.28;;;;;;;;;;5017694;28;20048;-67
2023/08/23 13:52:59;;;;;;;4.00;2.00;;;;;;;;;;5036146;28;20048;-68
2023/08/23 13:55:26;;;;;;;4.45;2.10;;;;;;;;;;5003226;28;20498;-67
2023/08/23 13:57:55;;;;;;;6.72;2.10;;;;;;;;;;5019563;28;20048;-67
2023/08/23 14:00:21;;;;;;;5.10;2.08;;;;;;;;;;5003138;28;20041;-67
2023/08/23 14:02:48;;;;;;;5.10;2.45;;;;;;;;;;5015700;28;20103;-67
2023/08/23 14:05:14;;;;;;;8.43;2.58;;;;;;;;;;5016023;28;20037;-68
2023/08/23 14:07:43;;;;;;;6.55;2.35;;;;;;;;;;5012440;28;20045;-67
2023/08/23 14:10:09;;;;;;;6.20;3.00;;;;;;;;;;5012586;28;20042;-67
2023/08/23 14:12:35;;;;;;;11.60;2.78;;;;;;;;;;4996207;28;20048;-68
2023/08/23 14:15:01;;;;;;;7.05;2.60;;;;;;;;;;4996535;28;20041;-68
2023/08/23 14:17:30;;;;;;;5.85;2.70;;;;;;;;;;4996148;28;20050;-67
2023/08/23 14:19:58;;;;;;;10.98;4.20;;;;;;;;;;4936705;28;20051;-69
2023/08/23 14:22:26;;;;;;;9.00;3.92;;;;;;;;;;4953588;28;20051;-63
2023/08/23 14:24:53;;;;;;;12.07;4.00;;;;;;;;;;4953703;28;20355;-63
2023/08/23 14:27:18;;;;;;;5.38;3.00;;;;;;;;;;4937691;29;20043;-66
2023/08/23 14:29:44;;;;;;;5.65;2.55;;;;;;;;;;4937710;29;20039;-69
2023/08/23 14:32:11;;;;;;;7.40;3.10;;;;;;;;;;4953550;28;20067;-65
2023/08/23 14:34:37;;;;;;;5.25;3.25;;;;;;;;;;4954129;28;20043;-64